sensor_id;sensor_type;location;lat;lon;timestamp;P1;durP1;ratioP1;P2;durP2;ratioP2
75885;SDS011;64561;44.018;10.144;2024-02-15T00:00:03;10.50;;;5.43;;
75885;SDS011;64561;44.018;10.144;2024-02-15T00:02:31;10.10;;;5.65;;
75885;SDS011;64561;44.018;10.144;2024-02-15T00:04:58;12.02;;;5.50;;
75885;SDS011;64561;44.018;10.144;2024-02-15T00:07:26;8.60;;;4.80;;
75885;SDS011;64561;44.018;10.144;2024-02-15T00:09:53;10.98;;;5.43;;
75885;SDS011;64561;44.018;10.144;2024-02-15T00:12:21;10.85;;;6.05;;
75885;SDS011;64561;44.018;10.144;2024-02-15T00:14:48;7.32;;;5.25;;
75885;SDS011;64561;44.018;10.144;2024-02-15T00:17:15;9.77;;;5.30;;
75885;SDS011;64561;44.018;10.144;2024-02-15T00:19:43;8.95;;;5.75;;
75885;SDS011;64561;44.018;10.144;2024-02-15T00:22:11;8.65;;;6.28;;
75885;SDS011;64561;44.018;10.144;2024-02-15T00:24:39;10.63;;;6.28;;
75885;SDS011;64561;44.018;10.144;2024-02-15T00:27:09;9.70;;;5.82;;
75885;SDS011;64561;44.018;10.144;2024-02-15T00:29:38;11.07;;;6.57;;
75885;SDS011;64561;44.018;10.144;2024-02-15T00:32:07;11.55;;;6.55;;
75885;SDS011;64561;44.018;10.144;2024-02-15T00:34:36;11.25;;;6.45;;
75885;SDS011;64561;44.018;10.144;2024-02-15T00:37:05;14.35;;;6.75;;
75885;SDS011;64561;44.018;10.144;2024-02-15T00:39:33;10.30;;;6.00;;
75885;SDS011;64561;44.018;10.144;2024-02-15T00:42:01;10.63;;;5.95;;
75885;SDS011;64561;44.018;10.144;2024-02-15T00:44:28;12.55;;;5.35;;
75885;SDS011;64561;44.018;10.144;2024-02-15T00:46:56;8.65;;;4.90;;
75885;SDS011;64561;44.018;10.144;2024-02-15T00:49:23;7.50;;;5.28;;
75885;SDS011;64561;44.018;10.144;2024-02-15T00:51:53;8.68;;;4.68;;
75885;SDS011;64561;44.018;10.144;2024-02-15T00:54:21;12.82;;;5.30;;
75885;SDS011;64561;44.018;10.144;2024-02-15T00:56:49;9.90;;;5.60;;
75885;SDS011;64561;44.018;10.144;2024-02-15T00:59:18;8.45;;;4.93;;
75885;SDS011;64561;44.018;10.144;2024-02-15T01:01:46;7.88;;;5.15;;
75885;SDS011;64561;44.018;10.144;2024-02-15T01:04:14;9.90;;;5.32;;
75885;SDS011;64561;44.018;10.144;2024-02-15T01:06:42;9.77;;;6.40;;
75885;SDS011;64561;44.018;10.144;2024-02-15T01:09:10;10.52;;;6.20;;
75885;SDS011;64561;44.018;10.144;2024-02-15T01:11:38;9.60;;;5.88;;
75885;SDS011;64561;44.018;10.144;2024-02-15T01:14:05;8.80;;;6.03;;
75885;SDS011;64561;44.018;10.144;2024-02-15T01:16:33;8.27;;;5.05;;
75885;SDS011;64561;44.018;10.144;2024-02-15T01:19:02;9.80;;;6.07;;
75885;SDS011;64561;44.018;10.144;2024-02-15T01:21:30;9.80;;;6.10;;
75885;SDS011;64561;44.018;10.144;2024-02-15T01:24:00;8.25;;;5.57;;
75885;SDS011;64561;44.018;10.144;2024-02-15T01:26:28;9.50;;;6.38;;
75885;SDS011;64561;44.018;10.144;2024-02-15T01:28:56;7.43;;;5.63;;
75885;SDS011;64561;44.018;10.144;2024-02-15T01:31:23;7.40;;;5.05;;
75885;SDS011;64561;44.018;10.144;2024-02-15T01:33:51;8.10;;;5.32;;
75885;SDS011;64561;44.018;10.144;2024-02-15T01:36:18;7.45;;;4.68;;
75885;SDS011;64561;44.018;10.144;2024-02-15T01:38:46;6.75;;;4.55;;
75885;SDS011;64561;44.018;10.144;2024-02-15T01:41:13;8.18;;;4.78;;
75885;SDS011;64561;44.018;10.144;2024-02-15T01:43:43;6.78;;;4.13;;
75885;SDS011;64561;44.018;10.144;2024-02-15T01:46:14;7.63;;;3.67;;
75885;SDS011;64561;44.018;10.144;2024-02-15T01:48:42;6.85;;;3.63;;
75885;SDS011;64561;44.018;10.144;2024-02-15T01:51:11;4.20;;;2.85;;
75885;SDS011;64561;44.018;10.144;2024-02-15T01:53:41;4.82;;;3.03;;
75885;SDS011;64561;44.018;10.144;2024-02-15T01:56:10;7.63;;;3.30;;
75885;SDS011;64561;44.018;10.144;2024-02-15T01:58:40;5.40;;;3.30;;
75885;SDS011;64561;44.018;10.144;2024-02-15T02:01:09;5.80;;;3.40;;
75885;SDS011;64561;44.018;10.144;2024-02-15T02:03:38;5.85;;;3.03;;
75885;SDS011;64561;44.018;10.144;2024-02-15T02:06:06;5.10;;;3.10;;
75885;SDS011;64561;44.018;10.144;2024-02-15T02:08:34;7.30;;;3.45;;
75885;SDS011;64561;44.018;10.144;2024-02-15T02:11:02;5.53;;;3.03;;
75885;SDS011;64561;44.018;10.144;2024-02-15T02:13:30;6.82;;;3.75;;
75885;SDS011;64561;44.018;10.144;2024-02-15T02:15:58;5.60;;;3.47;;
75885;SDS011;64561;44.018;10.144;2024-02-15T02:18:27;5.85;;;3.03;;
75885;SDS011;64561;44.018;10.144;2024-02-15T02:20:54;5.45;;;3.38;;
75885;SDS011;64561;44.018;10.144;2024-02-15T02:23:22;12.15;;;4.47;;
75885;SDS011;64561;44.018;10.144;2024-02-15T02:25:54;9.27;;;4.75;;
75885;SDS011;64561;44.018;10.144;2024-02-15T02:28:22;5.68;;;4.20;;
75885;SDS011;64561;44.018;10.144;2024-02-15T02:30:50;6.90;;;4.78;;
75885;SDS011;64561;44.018;10.144;2024-02-15T02:33:17;7.05;;;4.47;;
75885;SDS011;64561;44.018;10.144;2024-02-15T02:35:49;6.45;;;4.30;;
75885;SDS011;64561;44.018;10.144;2024-02-15T02:38:17;5.93;;;4.05;;
75885;SDS011;64561;44.018;10.144;2024-02-15T02:40:45;8.95;;;5.20;;
75885;SDS011;64561;44.018;10.144;2024-02-15T02:43:13;6.47;;;4.55;;
75885;SDS011;64561;44.018;10.144;2024-02-15T02:45:40;7.63;;;4.88;;
75885;SDS011;64561;44.018;10.144;2024-02-15T02:48:08;7.28;;;4.18;;
75885;SDS011;64561;44.018;10.144;2024-02-15T02:50:36;5.82;;;3.70;;
75885;SDS011;64561;44.018;10.144;2024-02-15T02:53:03;7.88;;;4.72;;
75885;SDS011;64561;44.018;10.144;2024-02-15T02:55:30;6.75;;;3.85;;
75885;SDS011;64561;44.018;10.144;2024-02-15T02:57:57;4.68;;;3.58;;
75885;SDS011;64561;44.018;10.144;2024-02-15T03:00:25;5.72;;;3.65;;
75885;SDS011;64561;44.018;10.144;2024-02-15T03:02:54;5.30;;;3.67;;
75885;SDS011;64561;44.018;10.144;2024-02-15T03:05:23;5.47;;;4.05;;
75885;SDS011;64561;44.018;10.144;2024-02-15T03:07:51;5.95;;;3.40;;
75885;SDS011;64561;44.018;10.144;2024-02-15T03:10:19;6.97;;;3.53;;
75885;SDS011;64561;44.018;10.144;2024-02-15T03:12:46;6.88;;;3.47;;
75885;SDS011;64561;44.018;10.144;2024-02-15T03:15:15;6.25;;;4.25;;
75885;SDS011;64561;44.018;10.144;2024-02-15T03:17:45;5.80;;;4.50;;
75885;SDS011;64561;44.018;10.144;2024-02-15T03:20:15;4.80;;;3.90;;
75885;SDS011;64561;44.018;10.144;2024-02-15T03:25:19;5.63;;;3.70;;
75885;SDS011;64561;44.018;10.144;2024-02-15T03:27:46;4.85;;;3.33;;
75885;SDS011;64561;44.018;10.144;2024-02-15T03:30:13;6.00;;;3.25;;
75885;SDS011;64561;44.018;10.144;2024-02-15T03:32:41;5.53;;;3.25;;
75885;SDS011;64561;44.018;10.144;2024-02-15T03:35:08;6.20;;;3.83;;
75885;SDS011;64561;44.018;10.144;2024-02-15T03:37:36;5.45;;;3.03;;
75885;SDS011;64561;44.018;10.144;2024-02-15T03:40:05;4.93;;;2.92;;
75885;SDS011;64561;44.018;10.144;2024-02-15T03:42:33;5.00;;;3.35;;
75885;SDS011;64561;44.018;10.144;2024-02-15T03:45:00;5.53;;;3.50;;
75885;SDS011;64561;44.018;10.144;2024-02-15T03:47:30;5.00;;;3.08;;
75885;SDS011;64561;44.018;10.144;2024-02-15T03:49:59;6.50;;;3.40;;
75885;SDS011;64561;44.018;10.144;2024-02-15T03:52:26;6.75;;;4.10;;
75885;SDS011;64561;44.018;10.144;2024-02-15T03:54:54;6.55;;;3.78;;
75885;SDS011;64561;44.018;10.144;2024-02-15T03:57:21;5.15;;;3.40;;
75885;SDS011;64561;44.018;10.144;2024-02-15T03:59:48;5.00;;;2.97;;
75885;SDS011;64561;44.018;10.144;2024-02-15T04:04:47;7.20;;;2.80;;
75885;SDS011;64561;44.018;10.144;2024-02-15T04:07:14;7.20;;;3.45;;
75885;SDS011;64561;44.018;10.144;2024-02-15T04:09:43;4.95;;;3.03;;
75885;SDS011;64561;44.018;10.144;2024-02-15T04:12:10;5.60;;;2.92;;
75885;SDS011;64561;44.018;10.144;2024-02-15T04:14:38;7.68;;;3.35;;
75885;SDS011;64561;44.018;10.144;2024-02-15T04:17:05;5.93;;;3.40;;
75885;SDS011;64561;44.018;10.144;2024-02-15T04:19:33;4.85;;;3.08;;
75885;SDS011;64561;44.018;10.144;2024-02-15T04:22:00;3.40;;;2.67;;
75885;SDS011;64561;44.018;10.144;2024-02-15T04:24:31;4.78;;;2.70;;
75885;SDS011;64561;44.018;10.144;2024-02-15T04:26:58;5.22;;;3.28;;
75885;SDS011;64561;44.018;10.144;2024-02-15T04:29:26;5.53;;;3.40;;
75885;SDS011;64561;44.018;10.144;2024-02-15T04:31:53;5.60;;;3.28;;
75885;SDS011;64561;44.018;10.144;2024-02-15T04:34:21;4.75;;;3.13;;
75885;SDS011;64561;44.018;10.144;2024-02-15T04:36:49;5.15;;;3.85;;
75885;SDS011;64561;44.018;10.144;2024-02-15T04:39:17;5.80;;;3.17;;
75885;SDS011;64561;44.018;10.144;2024-02-15T04:41:51;6.60;;;4.15;;
75885;SDS011;64561;44.018;10.144;2024-02-15T04:44:19;5.50;;;3.08;;
75885;SDS011;64561;44.018;10.144;2024-02-15T04:46:53;4.95;;;3.50;;
75885;SDS011;64561;44.018;10.144;2024-02-15T04:49:21;5.88;;;3.70;;
75885;SDS011;64561;44.018;10.144;2024-02-15T04:51:49;7.18;;;3.20;;
75885;SDS011;64561;44.018;10.144;2024-02-15T04:54:16;4.97;;;2.92;;
75885;SDS011;64561;44.018;10.144;2024-02-15T04:56:45;5.30;;;3.58;;
75885;SDS011;64561;44.018;10.144;2024-02-15T04:59:13;5.40;;;3.33;;
75885;SDS011;64561;44.018;10.144;2024-02-15T05:04:12;6.28;;;3.30;;
75885;SDS011;64561;44.018;10.144;2024-02-15T05:06:40;8.75;;;3.60;;
75885;SDS011;64561;44.018;10.144;2024-02-15T05:09:07;6.63;;;2.97;;
75885;SDS011;64561;44.018;10.144;2024-02-15T05:11:37;4.15;;;2.85;;
75885;SDS011;64561;44.018;10.144;2024-02-15T05:14:08;5.30;;;3.30;;
75885;SDS011;64561;44.018;10.144;2024-02-15T05:16:37;5.47;;;3.17;;
75885;SDS011;64561;44.018;10.144;2024-02-15T05:19:09;6.45;;;2.90;;
75885;SDS011;64561;44.018;10.144;2024-02-15T05:21:39;3.97;;;2.75;;
75885;SDS011;64561;44.018;10.144;2024-02-15T05:24:07;6.30;;;3.15;;
75885;SDS011;64561;44.018;10.144;2024-02-15T05:26:34;5.05;;;2.78;;
75885;SDS011;64561;44.018;10.144;2024-02-15T05:29:02;4.18;;;2.75;;
75885;SDS011;64561;44.018;10.144;2024-02-15T05:31:31;5.28;;;2.80;;
75885;SDS011;64561;44.018;10.144;2024-02-15T05:33:59;4.47;;;2.20;;
75885;SDS011;64561;44.018;10.144;2024-02-15T05:36:26;4.70;;;2.40;;
75885;SDS011;64561;44.018;10.144;2024-02-15T05:38:54;5.47;;;2.88;;
75885;SDS011;64561;44.018;10.144;2024-02-15T05:41:21;4.28;;;2.67;;
75885;SDS011;64561;44.018;10.144;2024-02-15T05:43:48;7.40;;;2.70;;
75885;SDS011;64561;44.018;10.144;2024-02-15T05:46:16;5.18;;;3.25;;
75885;SDS011;64561;44.018;10.144;2024-02-15T05:48:43;4.60;;;2.72;;
75885;SDS011;64561;44.018;10.144;2024-02-15T05:51:10;3.97;;;3.05;;
75885;SDS011;64561;44.018;10.144;2024-02-15T05:53:38;4.88;;;3.30;;
75885;SDS011;64561;44.018;10.144;2024-02-15T05:56:06;5.10;;;3.13;;
75885;SDS011;64561;44.018;10.144;2024-02-15T05:58:34;3.45;;;2.30;;
75885;SDS011;64561;44.018;10.144;2024-02-15T06:01:03;4.88;;;3.13;;
75885;SDS011;64561;44.018;10.144;2024-02-15T06:03:34;5.57;;;3.53;;
75885;SDS011;64561;44.018;10.144;2024-02-15T06:06:04;5.70;;;3.40;;
75885;SDS011;64561;44.018;10.144;2024-02-15T06:08:35;5.70;;;3.20;;
75885;SDS011;64561;44.018;10.144;2024-02-15T06:11:03;4.93;;;3.30;;
75885;SDS011;64561;44.018;10.144;2024-02-15T06:13:32;7.25;;;4.10;;
75885;SDS011;64561;44.018;10.144;2024-02-15T06:15:59;4.78;;;3.70;;
75885;SDS011;64561;44.018;10.144;2024-02-15T06:18:27;6.78;;;3.55;;
75885;SDS011;64561;44.018;10.144;2024-02-15T06:20:56;13.77;;;6.75;;
75885;SDS011;64561;44.018;10.144;2024-02-15T06:23:25;6.20;;;4.43;;
75885;SDS011;64561;44.018;10.144;2024-02-15T06:25:55;7.07;;;4.55;;
75885;SDS011;64561;44.018;10.144;2024-02-15T06:28:25;7.07;;;4.22;;
75885;SDS011;64561;44.018;10.144;2024-02-15T06:31:11;9.45;;;4.50;;
75885;SDS011;64561;44.018;10.144;2024-02-15T06:33:57;11.77;;;4.95;;
75885;SDS011;64561;44.018;10.144;2024-02-15T06:36:47;7.05;;;4.32;;
75885;SDS011;64561;44.018;10.144;2024-02-15T06:39:34;7.20;;;4.20;;
75885;SDS011;64561;44.018;10.144;2024-02-15T06:42:14;8.00;;;4.00;;
75885;SDS011;64561;44.018;10.144;2024-02-15T06:44:44;4.65;;;3.75;;
75885;SDS011;64561;44.018;10.144;2024-02-15T06:47:12;7.90;;;3.80;;
75885;SDS011;64561;44.018;10.144;2024-02-15T06:49:39;6.85;;;4.28;;
75885;SDS011;64561;44.018;10.144;2024-02-15T06:52:07;8.88;;;4.13;;
75885;SDS011;64561;44.018;10.144;2024-02-15T06:54:35;10.32;;;4.40;;
75885;SDS011;64561;44.018;10.144;2024-02-15T06:57:02;7.25;;;4.80;;
75885;SDS011;64561;44.018;10.144;2024-02-15T06:59:31;6.65;;;3.88;;
75885;SDS011;64561;44.018;10.144;2024-02-15T07:01:59;7.63;;;4.93;;
75885;SDS011;64561;44.018;10.144;2024-02-15T07:04:27;7.45;;;5.15;;
75885;SDS011;64561;44.018;10.144;2024-02-15T07:06:55;11.45;;;4.85;;
75885;SDS011;64561;44.018;10.144;2024-02-15T07:09:22;10.80;;;6.00;;
75885;SDS011;64561;44.018;10.144;2024-02-15T07:11:51;8.68;;;5.72;;
75885;SDS011;64561;44.018;10.144;2024-02-15T07:14:19;9.70;;;4.80;;
75885;SDS011;64561;44.018;10.144;2024-02-15T07:16:47;9.20;;;5.50;;
75885;SDS011;64561;44.018;10.144;2024-02-15T07:19:16;8.85;;;5.50;;
75885;SDS011;64561;44.018;10.144;2024-02-15T07:21:45;8.13;;;5.90;;
75885;SDS011;64561;44.018;10.144;2024-02-15T07:24:13;7.28;;;4.93;;
75885;SDS011;64561;44.018;10.144;2024-02-15T07:26:41;12.55;;;5.40;;
75885;SDS011;64561;44.018;10.144;2024-02-15T07:29:08;7.63;;;5.50;;
75885;SDS011;64561;44.018;10.144;2024-02-15T07:31:36;8.85;;;4.82;;
75885;SDS011;64561;44.018;10.144;2024-02-15T07:34:04;9.70;;;5.10;;
75885;SDS011;64561;44.018;10.144;2024-02-15T07:36:34;11.02;;;5.25;;
75885;SDS011;64561;44.018;10.144;2024-02-15T07:39:02;9.45;;;5.20;;
75885;SDS011;64561;44.018;10.144;2024-02-15T07:41:30;8.40;;;4.32;;
75885;SDS011;64561;44.018;10.144;2024-02-15T07:44:00;9.02;;;4.43;;
75885;SDS011;64561;44.018;10.144;2024-02-15T07:46:28;7.22;;;4.60;;
75885;SDS011;64561;44.018;10.144;2024-02-15T07:48:55;7.90;;;4.35;;
75885;SDS011;64561;44.018;10.144;2024-02-15T07:51:24;13.23;;;7.13;;
75885;SDS011;64561;44.018;10.144;2024-02-15T07:53:52;10.15;;;8.13;;
75885;SDS011;64561;44.018;10.144;2024-02-15T07:56:19;9.25;;;6.28;;
75885;SDS011;64561;44.018;10.144;2024-02-15T07:58:47;9.07;;;6.28;;
75885;SDS011;64561;44.018;10.144;2024-02-15T08:01:19;8.65;;;6.53;;
75885;SDS011;64561;44.018;10.144;2024-02-15T08:06:48;17.05;;;8.82;;
75885;SDS011;64561;44.018;10.144;2024-02-15T08:09:15;15.35;;;10.43;;
75885;SDS011;64561;44.018;10.144;2024-02-15T08:11:44;18.45;;;12.57;;
75885;SDS011;64561;44.018;10.144;2024-02-15T08:14:12;22.27;;;14.80;;
75885;SDS011;64561;44.018;10.144;2024-02-15T08:16:40;19.23;;;13.05;;
75885;SDS011;64561;44.018;10.144;2024-02-15T08:19:09;21.88;;;14.95;;
75885;SDS011;64561;44.018;10.144;2024-02-15T08:21:38;33.70;;;19.90;;
75885;SDS011;64561;44.018;10.144;2024-02-15T08:24:08;28.83;;;18.17;;
75885;SDS011;64561;44.018;10.144;2024-02-15T08:26:39;30.90;;;18.60;;
75885;SDS011;64561;44.018;10.144;2024-02-15T08:29:07;22.00;;;14.35;;
75885;SDS011;64561;44.018;10.144;2024-02-15T08:31:34;21.13;;;13.07;;
75885;SDS011;64561;44.018;10.144;2024-02-15T08:34:02;24.98;;;13.82;;
75885;SDS011;64561;44.018;10.144;2024-02-15T08:36:33;24.90;;;13.65;;
75885;SDS011;64561;44.018;10.144;2024-02-15T08:39:00;22.98;;;12.75;;
75885;SDS011;64561;44.018;10.144;2024-02-15T08:41:28;19.98;;;12.65;;
75885;SDS011;64561;44.018;10.144;2024-02-15T08:43:55;19.02;;;12.07;;
75885;SDS011;64561;44.018;10.144;2024-02-15T08:46:27;20.65;;;11.80;;
75885;SDS011;64561;44.018;10.144;2024-02-15T08:48:54;20.17;;;10.90;;
75885;SDS011;64561;44.018;10.144;2024-02-15T08:51:22;15.82;;;10.82;;
75885;SDS011;64561;44.018;10.144;2024-02-15T08:53:51;20.52;;;11.95;;
75885;SDS011;64561;44.018;10.144;2024-02-15T08:56:18;17.80;;;11.45;;
75885;SDS011;64561;44.018;10.144;2024-02-15T08:58:46;16.75;;;12.13;;
75885;SDS011;64561;44.018;10.144;2024-02-15T09:01:20;21.27;;;11.68;;
75885;SDS011;64561;44.018;10.144;2024-02-15T09:03:47;24.05;;;13.13;;
75885;SDS011;64561;44.018;10.144;2024-02-15T09:06:14;17.33;;;11.90;;
75885;SDS011;64561;44.018;10.144;2024-02-15T09:08:42;14.88;;;9.30;;
75885;SDS011;64561;44.018;10.144;2024-02-15T09:11:09;15.10;;;9.52;;
75885;SDS011;64561;44.018;10.144;2024-02-15T09:13:39;14.52;;;8.60;;
75885;SDS011;64561;44.018;10.144;2024-02-15T09:16:07;15.88;;;9.10;;
75885;SDS011;64561;44.018;10.144;2024-02-15T09:18:34;14.50;;;9.73;;
75885;SDS011;64561;44.018;10.144;2024-02-15T09:21:01;12.43;;;8.73;;
75885;SDS011;64561;44.018;10.144;2024-02-15T09:23:29;16.90;;;9.57;;
75885;SDS011;64561;44.018;10.144;2024-02-15T09:25:58;13.25;;;8.25;;
75885;SDS011;64561;44.018;10.144;2024-02-15T09:28:26;18.73;;;9.75;;
75885;SDS011;64561;44.018;10.144;2024-02-15T09:30:53;13.07;;;9.75;;
75885;SDS011;64561;44.018;10.144;2024-02-15T09:33:26;16.17;;;9.60;;
75885;SDS011;64561;44.018;10.144;2024-02-15T09:35:53;11.60;;;9.18;;
75885;SDS011;64561;44.018;10.144;2024-02-15T09:38:22;11.55;;;8.40;;
75885;SDS011;64561;44.018;10.144;2024-02-15T09:40:49;13.20;;;8.40;;
75885;SDS011;64561;44.018;10.144;2024-02-15T09:43:16;10.23;;;7.50;;
75885;SDS011;64561;44.018;10.144;2024-02-15T09:45:43;11.15;;;7.75;;
75885;SDS011;64561;44.018;10.144;2024-02-15T09:48:11;11.93;;;7.45;;
75885;SDS011;64561;44.018;10.144;2024-02-15T09:50:41;11.65;;;8.25;;
75885;SDS011;64561;44.018;10.144;2024-02-15T09:53:10;10.88;;;7.40;;
75885;SDS011;64561;44.018;10.144;2024-02-15T09:55:39;14.40;;;7.50;;
75885;SDS011;64561;44.018;10.144;2024-02-15T09:58:10;12.65;;;7.53;;
75885;SDS011;64561;44.018;10.144;2024-02-15T10:00:39;16.35;;;9.13;;
75885;SDS011;64561;44.018;10.144;2024-02-15T10:03:07;15.82;;;8.73;;
75885;SDS011;64561;44.018;10.144;2024-02-15T10:05:36;11.85;;;7.32;;
75885;SDS011;64561;44.018;10.144;2024-02-15T10:08:06;14.23;;;6.95;;
75885;SDS011;64561;44.018;10.144;2024-02-15T10:10:34;9.35;;;6.20;;
75885;SDS011;64561;44.018;10.144;2024-02-15T10:13:02;10.90;;;7.00;;
75885;SDS011;64561;44.018;10.144;2024-02-15T10:18:03;11.50;;;6.45;;
75885;SDS011;64561;44.018;10.144;2024-02-15T10:20:39;11.60;;;5.60;;
75885;SDS011;64561;44.018;10.144;2024-02-15T10:23:12;10.20;;;6.68;;
75885;SDS011;64561;44.018;10.144;2024-02-15T10:25:45;8.45;;;4.97;;
75885;SDS011;64561;44.018;10.144;2024-02-15T10:28:14;9.30;;;5.43;;
75885;SDS011;64561;44.018;10.144;2024-02-15T10:30:46;6.45;;;5.07;;
75885;SDS011;64561;44.018;10.144;2024-02-15T10:33:19;9.10;;;5.97;;
75885;SDS011;64561;44.018;10.144;2024-02-15T10:35:52;10.60;;;6.15;;
75885;SDS011;64561;44.018;10.144;2024-02-15T10:38:35;8.68;;;5.30;;
75885;SDS011;64561;44.018;10.144;2024-02-15T10:41:03;9.35;;;5.38;;
75885;SDS011;64561;44.018;10.144;2024-02-15T10:43:35;6.75;;;4.95;;
75885;SDS011;64561;44.018;10.144;2024-02-15T10:46:08;9.10;;;5.90;;
75885;SDS011;64561;44.018;10.144;2024-02-15T10:48:37;8.48;;;5.57;;
75885;SDS011;64561;44.018;10.144;2024-02-15T10:51:10;7.82;;;5.10;;
75885;SDS011;64561;44.018;10.144;2024-02-15T10:53:44;6.75;;;5.00;;
75885;SDS011;64561;44.018;10.144;2024-02-15T10:56:24;5.50;;;3.60;;
75885;SDS011;64561;44.018;10.144;2024-02-15T10:59:03;7.50;;;4.20;;
75885;SDS011;64561;44.018;10.144;2024-02-15T11:01:45;8.75;;;5.32;;
75885;SDS011;64561;44.018;10.144;2024-02-15T11:04:17;8.63;;;4.82;;
75885;SDS011;64561;44.018;10.144;2024-02-15T11:06:52;8.10;;;4.70;;
75885;SDS011;64561;44.018;10.144;2024-02-15T11:09:22;11.25;;;5.38;;
75885;SDS011;64561;44.018;10.144;2024-02-15T11:11:50;12.23;;;5.47;;
75885;SDS011;64561;44.018;10.144;2024-02-15T11:14:26;9.40;;;5.32;;
75885;SDS011;64561;44.018;10.144;2024-02-15T11:16:59;8.40;;;5.68;;
75885;SDS011;64561;44.018;10.144;2024-02-15T11:22:24;10.60;;;5.38;;
75885;SDS011;64561;44.018;10.144;2024-02-15T11:24:51;7.70;;;5.00;;
75885;SDS011;64561;44.018;10.144;2024-02-15T11:27:26;8.57;;;4.55;;
75885;SDS011;64561;44.018;10.144;2024-02-15T11:29:55;6.55;;;4.07;;
75885;SDS011;64561;44.018;10.144;2024-02-15T11:35:12;7.57;;;4.40;;
75885;SDS011;64561;44.018;10.144;2024-02-15T11:40:26;9.90;;;4.63;;
75885;SDS011;64561;44.018;10.144;2024-02-15T11:43:00;8.20;;;4.50;;
75885;SDS011;64561;44.018;10.144;2024-02-15T11:45:28;7.47;;;4.65;;
75885;SDS011;64561;44.018;10.144;2024-02-15T11:48:10;6.97;;;4.68;;
75885;SDS011;64561;44.018;10.144;2024-02-15T11:50:39;8.20;;;4.65;;
75885;SDS011;64561;44.018;10.144;2024-02-15T11:53:08;8.93;;;5.18;;
75885;SDS011;64561;44.018;10.144;2024-02-15T11:55:38;6.93;;;4.35;;
75885;SDS011;64561;44.018;10.144;2024-02-15T11:58:07;7.13;;;5.00;;
75885;SDS011;64561;44.018;10.144;2024-02-15T12:00:36;5.55;;;4.25;;
75885;SDS011;64561;44.018;10.144;2024-02-15T12:03:23;8.35;;;4.60;;
75885;SDS011;64561;44.018;10.144;2024-02-15T12:06:27;6.38;;;4.20;;
75885;SDS011;64561;44.018;10.144;2024-02-15T12:09:17;7.07;;;4.03;;
75885;SDS011;64561;44.018;10.144;2024-02-15T12:12:04;6.47;;;4.22;;
75885;SDS011;64561;44.018;10.144;2024-02-15T12:14:58;7.00;;;3.92;;
75885;SDS011;64561;44.018;10.144;2024-02-15T12:17:45;5.35;;;3.30;;
75885;SDS011;64561;44.018;10.144;2024-02-15T12:20:32;4.80;;;2.95;;
75885;SDS011;64561;44.018;10.144;2024-02-15T12:23:01;5.65;;;3.53;;
75885;SDS011;64561;44.018;10.144;2024-02-15T12:25:29;5.53;;;3.40;;
75885;SDS011;64561;44.018;10.144;2024-02-15T12:28:00;6.60;;;3.17;;
75885;SDS011;64561;44.018;10.144;2024-02-15T12:30:33;5.38;;;2.70;;
75885;SDS011;64561;44.018;10.144;2024-02-15T12:34:02;5.55;;;2.97;;
75885;SDS011;64561;44.018;10.144;2024-02-15T12:36:36;4.13;;;2.78;;
75885;SDS011;64561;44.018;10.144;2024-02-15T12:39:05;5.57;;;2.33;;
75885;SDS011;64561;44.018;10.144;2024-02-15T12:41:47;7.32;;;3.33;;
75885;SDS011;64561;44.018;10.144;2024-02-15T12:44:19;5.75;;;3.55;;
75885;SDS011;64561;44.018;10.144;2024-02-15T12:46:47;5.65;;;3.53;;
75885;SDS011;64561;44.018;10.144;2024-02-15T12:51:49;4.63;;;3.42;;
75885;SDS011;64561;44.018;10.144;2024-02-15T12:54:21;4.15;;;2.95;;
75885;SDS011;64561;44.018;10.144;2024-02-15T12:56:49;5.28;;;4.10;;
75885;SDS011;64561;44.018;10.144;2024-02-15T12:59:19;5.38;;;3.67;;
75885;SDS011;64561;44.018;10.144;2024-02-15T13:01:47;6.32;;;3.47;;
75885;SDS011;64561;44.018;10.144;2024-02-15T13:04:24;4.70;;;3.10;;
75885;SDS011;64561;44.018;10.144;2024-02-15T13:06:52;5.32;;;3.88;;
75885;SDS011;64561;44.018;10.144;2024-02-15T13:09:20;5.22;;;2.97;;
75885;SDS011;64561;44.018;10.144;2024-02-15T13:11:49;5.18;;;2.85;;
75885;SDS011;64561;44.018;10.144;2024-02-15T13:14:17;4.63;;;3.03;;
75885;SDS011;64561;44.018;10.144;2024-02-15T13:16:44;7.45;;;3.85;;
75885;SDS011;64561;44.018;10.144;2024-02-15T13:19:13;5.63;;;3.67;;
75885;SDS011;64561;44.018;10.144;2024-02-15T13:21:40;5.88;;;3.60;;
75885;SDS011;64561;44.018;10.144;2024-02-15T13:24:08;4.68;;;3.13;;
75885;SDS011;64561;44.018;10.144;2024-02-15T13:26:38;5.72;;;3.25;;
75885;SDS011;64561;44.018;10.144;2024-02-15T13:29:07;5.28;;;3.33;;
75885;SDS011;64561;44.018;10.144;2024-02-15T13:31:34;5.50;;;3.00;;
75885;SDS011;64561;44.018;10.144;2024-02-15T13:34:01;4.35;;;2.95;;
75885;SDS011;64561;44.018;10.144;2024-02-15T13:36:28;4.03;;;2.72;;
75885;SDS011;64561;44.018;10.144;2024-02-15T13:38:57;5.18;;;3.55;;
75885;SDS011;64561;44.018;10.144;2024-02-15T13:41:24;6.65;;;3.55;;
75885;SDS011;64561;44.018;10.144;2024-02-15T13:43:51;5.30;;;3.17;;
75885;SDS011;64561;44.018;10.144;2024-02-15T13:46:20;6.60;;;3.78;;
75885;SDS011;64561;44.018;10.144;2024-02-15T13:48:47;5.88;;;3.25;;
75885;SDS011;64561;44.018;10.144;2024-02-15T13:51:14;5.45;;;3.45;;
75885;SDS011;64561;44.018;10.144;2024-02-15T13:53:41;5.78;;;3.47;;
75885;SDS011;64561;44.018;10.144;2024-02-15T13:56:10;6.53;;;3.38;;
75885;SDS011;64561;44.018;10.144;2024-02-15T13:58:37;7.57;;;4.00;;
75885;SDS011;64561;44.018;10.144;2024-02-15T14:01:04;6.72;;;3.20;;
75885;SDS011;64561;44.018;10.144;2024-02-15T14:03:32;4.25;;;3.08;;
75885;SDS011;64561;44.018;10.144;2024-02-15T14:06:00;4.85;;;3.33;;
75885;SDS011;64561;44.018;10.144;2024-02-15T14:08:28;5.88;;;3.17;;
75885;SDS011;64561;44.018;10.144;2024-02-15T14:10:55;5.68;;;3.17;;
75885;SDS011;64561;44.018;10.144;2024-02-15T14:13:23;6.35;;;3.35;;
75885;SDS011;64561;44.018;10.144;2024-02-15T14:15:51;5.10;;;3.67;;
75885;SDS011;64561;44.018;10.144;2024-02-15T14:18:19;5.03;;;3.00;;
75885;SDS011;64561;44.018;10.144;2024-02-15T14:20:47;6.45;;;3.05;;
75885;SDS011;64561;44.018;10.144;2024-02-15T14:23:15;8.48;;;2.90;;
75885;SDS011;64561;44.018;10.144;2024-02-15T14:25:43;6.55;;;3.40;;
75885;SDS011;64561;44.018;10.144;2024-02-15T14:28:12;6.30;;;2.90;;
75885;SDS011;64561;44.018;10.144;2024-02-15T14:30:42;4.65;;;2.75;;
75885;SDS011;64561;44.018;10.144;2024-02-15T14:33:29;6.32;;;3.50;;
75885;SDS011;64561;44.018;10.144;2024-02-15T14:36:01;5.22;;;2.80;;
75885;SDS011;64561;44.018;10.144;2024-02-15T14:38:31;4.47;;;3.05;;
75885;SDS011;64561;44.018;10.144;2024-02-15T14:41:05;5.82;;;2.72;;
75885;SDS011;64561;44.018;10.144;2024-02-15T14:44:00;4.13;;;3.40;;
75885;SDS011;64561;44.018;10.144;2024-02-15T14:46:27;9.18;;;5.00;;
75885;SDS011;64561;44.018;10.144;2024-02-15T14:48:54;7.78;;;4.65;;
75885;SDS011;64561;44.018;10.144;2024-02-15T14:51:24;5.90;;;4.40;;
75885;SDS011;64561;44.018;10.144;2024-02-15T14:53:53;6.45;;;4.10;;
75885;SDS011;64561;44.018;10.144;2024-02-15T14:56:20;5.95;;;4.15;;
75885;SDS011;64561;44.018;10.144;2024-02-15T14:58:47;6.47;;;5.03;;
75885;SDS011;64561;44.018;10.144;2024-02-15T15:01:14;5.53;;;4.38;;
75885;SDS011;64561;44.018;10.144;2024-02-15T15:03:41;7.50;;;4.30;;
75885;SDS011;64561;44.018;10.144;2024-02-15T15:06:10;6.13;;;4.10;;
75885;SDS011;64561;44.018;10.144;2024-02-15T15:08:56;8.23;;;4.63;;